sensor_id;sensor_type;location;lat;lon;timestamp;P1;durP1;ratioP1;P2;durP2;ratioP2
15486;SDS011;7845;53.698;10.078;2023-11-19T00:00:46;7.67;;;7.00;;
15486;SDS011;7845;53.698;10.078;2023-11-19T00:03:12;7.00;;;5.67;;
15486;SDS011;7845;53.698;10.078;2023-11-19T00:05:38;7.33;;;5.00;;
15486;SDS011;7845;53.698;10.078;2023-11-19T00:08:03;8.00;;;7.00;;
15486;SDS011;7845;53.698;10.078;2023-11-19T00:10:30;5.00;;;5.00;;
15486;SDS011;7845;53.698;10.078;2023-11-19T00:12:56;4.33;;;4.33;;
15486;SDS011;7845;53.698;10.078;2023-11-19T00:15:22;9.33;;;9.00;;
15486;SDS011;7845;53.698;10.078;2023-11-19T00:17:49;5.00;;;4.00;;
15486;SDS011;7845;53.698;10.078;2023-11-19T00:20:15;2.67;;;2.00;;
15486;SDS011;7845;53.698;10.078;2023-11-19T00:22:42;7.67;;;7.00;;
15486;SDS011;7845;53.698;10.078;2023-11-19T00:25:07;5.67;;;5.67;;
15486;SDS011;7845;53.698;10.078;2023-11-19T00:27:34;4.75;;;3.50;;
15486;SDS011;7845;53.698;10.078;2023-11-19T00:29:59;6.33;;;5.00;;
15486;SDS011;7845;53.698;10.078;2023-11-19T00:32:25;4.67;;;4.00;;
15486;SDS011;7845;53.698;10.078;2023-11-19T00:34:50;4.33;;;3.67;;
15486;SDS011;7845;53.698;10.078;2023-11-19T00:37:15;2.00;;;2.00;;
15486;SDS011;7845;53.698;10.078;2023-11-19T00:39:41;5.00;;;5.00;;
15486;SDS011;7845;53.698;10.078;2023-11-19T00:42:07;2.67;;;2.67;;
15486;SDS011;7845;53.698;10.078;2023-11-19T00:44:32;2.00;;;2.00;;
15486;SDS011;7845;53.698;10.078;2023-11-19T00:46:57;4.00;;;2.67;;
15486;SDS011;7845;53.698;10.078;2023-11-19T00:49:24;4.67;;;3.33;;
15486;SDS011;7845;53.698;10.078;2023-11-19T00:51:49;4.00;;;2.00;;
15486;SDS011;7845;53.698;10.078;2023-11-19T00:54:15;1.67;;;1.33;;
15486;SDS011;7845;53.698;10.078;2023-11-19T00:56:40;3.33;;;2.00;;
15486;SDS011;7845;53.698;10.078;2023-11-19T00:59:05;4.00;;;2.00;;
15486;SDS011;7845;53.698;10.078;2023-11-19T01:01:30;4.00;;;2.00;;
15486;SDS011;7845;53.698;10.078;2023-11-19T01:03:56;1.00;;;1.00;;
15486;SDS011;7845;53.698;10.078;2023-11-19T01:06:28;1.75;;;1.75;;
15486;SDS011;7845;53.698;10.078;2023-11-19T01:08:55;1.00;;;0.50;;
15486;SDS011;7845;53.698;10.078;2023-11-19T01:11:24;1.00;;;1.00;;
15486;SDS011;7845;53.698;10.078;2023-11-19T01:13:50;1.00;;;1.00;;
15486;SDS011;7845;53.698;10.078;2023-11-19T01:16:16;1.00;;;1.00;;
15486;SDS011;7845;53.698;10.078;2023-11-19T01:18:42;1.00;;;1.00;;
15486;SDS011;7845;53.698;10.078;2023-11-19T01:21:07;2.00;;;2.00;;
15486;SDS011;7845;53.698;10.078;2023-11-19T01:23:33;0.50;;;0.50;;
15486;SDS011;7845;53.698;10.078;2023-11-19T01:25:59;1.00;;;1.00;;
15486;SDS011;7845;53.698;10.078;2023-11-19T01:28:24;0.00;;;0.00;;
15486;SDS011;7845;53.698;10.078;2023-11-19T01:30:52;0.00;;;0.00;;
15486;SDS011;7845;53.698;10.078;2023-11-19T01:33:18;0.00;;;0.00;;
15486;SDS011;7845;53.698;10.078;2023-11-19T01:35:43;1.00;;;1.00;;
15486;SDS011;7845;53.698;10.078;2023-11-19T01:38:09;1.67;;;1.33;;
15486;SDS011;7845;53.698;10.078;2023-11-19T01:40:36;0.00;;;0.00;;
15486;SDS011;7845;53.698;10.078;2023-11-19T01:43:04;0.25;;;0.00;;
15486;SDS011;7845;53.698;10.078;2023-11-19T01:45:30;0.67;;;0.67;;
15486;SDS011;7845;53.698;10.078;2023-11-19T01:47:59;0.00;;;0.00;;
15486;SDS011;7845;53.698;10.078;2023-11-19T01:50:31;0.00;;;0.00;;
15486;SDS011;7845;53.698;10.078;2023-11-19T01:52:58;1.00;;;0.00;;
15486;SDS011;7845;53.698;10.078;2023-11-19T01:55:23;0.00;;;0.00;;
15486;SDS011;7845;53.698;10.078;2023-11-19T01:57:50;0.00;;;0.00;;
15486;SDS011;7845;53.698;10.078;2023-11-19T02:00:17;0.00;;;0.00;;
15486;SDS011;7845;53.698;10.078;2023-11-19T02:02:49;0.00;;;0.00;;
15486;SDS011;7845;53.698;10.078;2023-11-19T02:05:17;1.00;;;1.00;;
15486;SDS011;7845;53.698;10.078;2023-11-19T02:07:42;0.00;;;0.00;;
15486;SDS011;7845;53.698;10.078;2023-11-19T02:10:07;0.00;;;0.00;;
15486;SDS011;7845;53.698;10.078;2023-11-19T02:12:38;0.00;;;0.00;;
15486;SDS011;7845;53.698;10.078;2023-11-19T02:15:08;0.00;;;0.00;;
15486;SDS011;7845;53.698;10.078;2023-11-19T02:17:34;0.00;;;0.00;;
15486;SDS011;7845;53.698;10.078;2023-11-19T02:19:59;0.00;;;0.00;;
15486;SDS011;7845;53.698;10.078;2023-11-19T02:22:24;0.00;;;0.00;;
15486;SDS011;7845;53.698;10.078;2023-11-19T02:24:51;0.00;;;0.00;;
15486;SDS011;7845;53.698;10.078;2023-11-19T02:27:27;0.00;;;0.00;;
15486;SDS011;7845;53.698;10.078;2023-11-19T02:30:03;0.00;;;0.00;;
15486;SDS011;7845;53.698;10.078;2023-11-19T02:32:31;0.00;;;0.00;;
15486;SDS011;7845;53.698;10.078;2023-11-19T02:34:57;0.00;;;0.00;;
15486;SDS011;7845;53.698;10.078;2023-11-19T02:37:22;0.00;;;0.00;;
15486;SDS011;7845;53.698;10.078;2023-11-19T02:39:48;0.00;;;0.00;;
15486;SDS011;7845;53.698;10.078;2023-11-19T02:42:13;0.00;;;0.00;;
15486;SDS011;7845;53.698;10.078;2023-11-19T02:44:38;0.00;;;0.00;;
15486;SDS011;7845;53.698;10.078;2023-11-19T02:47:05;0.00;;;0.00;;
15486;SDS011;7845;53.698;10.078;2023-11-19T02:49:33;0.00;;;0.00;;
15486;SDS011;7845;53.698;10.078;2023-11-19T02:51:58;0.00;;;0.00;;
15486;SDS011;7845;53.698;10.078;2023-11-19T02:54:24;0.00;;;0.00;;
15486;SDS011;7845;53.698;10.078;2023-11-19T02:56:52;0.00;;;0.00;;
15486;SDS011;7845;53.698;10.078;2023-11-19T02:59:21;0.00;;;0.00;;
15486;SDS011;7845;53.698;10.078;2023-11-19T03:01:52;0.00;;;0.00;;
15486;SDS011;7845;53.698;10.078;2023-11-19T03:04:18;0.00;;;0.00;;
15486;SDS011;7845;53.698;10.078;2023-11-19T03:06:45;0.00;;;0.00;;
15486;SDS011;7845;53.698;10.078;2023-11-19T03:09:11;0.00;;;0.00;;
15486;SDS011;7845;53.698;10.078;2023-11-19T03:11:37;0.00;;;0.00;;
15486;SDS011;7845;53.698;10.078;2023-11-19T03:14:02;0.00;;;0.00;;
15486;SDS011;7845;53.698;10.078;2023-11-19T03:16:28;0.00;;;0.00;;
15486;SDS011;7845;53.698;10.078;2023-11-19T03:18:53;0.00;;;0.00;;
15486;SDS011;7845;53.698;10.078;2023-11-19T03:21:19;0.00;;;0.00;;
15486;SDS011;7845;53.698;10.078;2023-11-19T03:23:44;0.00;;;0.00;;
15486;SDS011;7845;53.698;10.078;2023-11-19T03:26:12;0.00;;;0.00;;
15486;SDS011;7845;53.698;10.078;2023-11-19T03:28:38;0.00;;;0.00;;
15486;SDS011;7845;53.698;10.078;2023-11-19T03:31:07;0.00;;;0.00;;
15486;SDS011;7845;53.698;10.078;2023-11-19T03:33:35;0.00;;;0.00;;
15486;SDS011;7845;53.698;10.078;2023-11-19T03:36:00;0.00;;;0.00;;
15486;SDS011;7845;53.698;10.078;2023-11-19T03:38:25;1.00;;;1.00;;
15486;SDS011;7845;53.698;10.078;2023-11-19T03:40:51;0.00;;;0.00;;
15486;SDS011;7845;53.698;10.078;2023-11-19T03:43:16;0.00;;;0.00;;
15486;SDS011;7845;53.698;10.078;2023-11-19T03:45:42;0.00;;;0.00;;
15486;SDS011;7845;53.698;10.078;2023-11-19T03:48:07;0.00;;;0.00;;
15486;SDS011;7845;53.698;10.078;2023-11-19T03:50:32;0.67;;;0.67;;
15486;SDS011;7845;53.698;10.078;2023-11-19T03:52:58;0.00;;;0.00;;
15486;SDS011;7845;53.698;10.078;2023-11-19T03:55:24;0.00;;;0.00;;
15486;SDS011;7845;53.698;10.078;2023-11-19T03:57:50;0.75;;;0.00;;
15486;SDS011;7845;53.698;10.078;2023-11-19T04:00:15;0.00;;;0.00;;
15486;SDS011;7845;53.698;10.078;2023-11-19T04:02:40;1.00;;;1.00;;
15486;SDS011;7845;53.698;10.078;2023-11-19T04:05:06;1.00;;;1.00;;
15486;SDS011;7845;53.698;10.078;2023-11-19T04:07:32;2.00;;;2.00;;
15486;SDS011;7845;53.698;10.078;2023-11-19T04:09:57;0.00;;;0.00;;
15486;SDS011;7845;53.698;10.078;2023-11-19T04:12:23;1.00;;;1.00;;
15486;SDS011;7845;53.698;10.078;2023-11-19T04:14:48;1.00;;;1.00;;
15486;SDS011;7845;53.698;10.078;2023-11-19T04:17:14;0.33;;;0.33;;
15486;SDS011;7845;53.698;10.078;2023-11-19T04:19:39;0.67;;;0.67;;
15486;SDS011;7845;53.698;10.078;2023-11-19T04:22:06;2.00;;;1.00;;
15486;SDS011;7845;53.698;10.078;2023-11-19T04:24:32;2.00;;;1.25;;
15486;SDS011;7845;53.698;10.078;2023-11-19T04:26:58;2.00;;;1.33;;
15486;SDS011;7845;53.698;10.078;2023-11-19T04:29:23;4.00;;;4.00;;
15486;SDS011;7845;53.698;10.078;2023-11-19T04:31:48;2.00;;;2.00;;
15486;SDS011;7845;53.698;10.078;2023-11-19T04:34:13;2.00;;;1.33;;
15486;SDS011;7845;53.698;10.078;2023-11-19T04:36:39;1.00;;;1.00;;
15486;SDS011;7845;53.698;10.078;2023-11-19T04:39:04;4.33;;;3.33;;
15486;SDS011;7845;53.698;10.078;2023-11-19T04:41:34;2.00;;;2.00;;
15486;SDS011;7845;53.698;10.078;2023-11-19T04:44:00;1.33;;;1.33;;
15486;SDS011;7845;53.698;10.078;2023-11-19T04:46:25;2.00;;;2.00;;
15486;SDS011;7845;53.698;10.078;2023-11-19T04:48:50;1.00;;;1.00;;
15486;SDS011;7845;53.698;10.078;2023-11-19T04:51:16;2.00;;;2.00;;
15486;SDS011;7845;53.698;10.078;2023-11-19T04:53:42;1.67;;;1.67;;
15486;SDS011;7845;53.698;10.078;2023-11-19T04:56:07;1.67;;;1.67;;
15486;SDS011;7845;53.698;10.078;2023-11-19T04:58:34;3.50;;;3.50;;
15486;SDS011;7845;53.698;10.078;2023-11-19T05:01:01;4.00;;;2.00;;
15486;SDS011;7845;53.698;10.078;2023-11-19T05:03:26;4.33;;;4.33;;
15486;SDS011;7845;53.698;10.078;2023-11-19T05:05:51;5.00;;;4.33;;
15486;SDS011;7845;53.698;10.078;2023-11-19T05:08:17;2.00;;;2.00;;
15486;SDS011;7845;53.698;10.078;2023-11-19T05:10:42;6.33;;;5.00;;
15486;SDS011;7845;53.698;10.078;2023-11-19T05:13:07;8.33;;;5.33;;
15486;SDS011;7845;53.698;10.078;2023-11-19T05:15:33;7.67;;;7.33;;
15486;SDS011;7845;53.698;10.078;2023-11-19T05:17:58;8.33;;;8.00;;
15486;SDS011;7845;53.698;10.078;2023-11-19T05:20:23;8.00;;;8.00;;
15486;SDS011;7845;53.698;10.078;2023-11-19T05:22:49;10.00;;;7.67;;
15486;SDS011;7845;53.698;10.078;2023-11-19T05:25:18;11.00;;;11.00;;
15486;SDS011;7845;53.698;10.078;2023-11-19T05:27:44;12.50;;;11.25;;
15486;SDS011;7845;53.698;10.078;2023-11-19T05:30:10;7.33;;;7.33;;
15486;SDS011;7845;53.698;10.078;2023-11-19T05:32:36;8.33;;;8.33;;
15486;SDS011;7845;53.698;10.078;2023-11-19T05:35:01;9.00;;;8.33;;
15486;SDS011;7845;53.698;10.078;2023-11-19T05:37:27;13.67;;;12.00;;
15486;SDS011;7845;53.698;10.078;2023-11-19T05:39:53;8.75;;;8.75;;
15486;SDS011;7845;53.698;10.078;2023-11-19T05:42:18;12.00;;;12.00;;
15486;SDS011;7845;53.698;10.078;2023-11-19T05:44:43;9.67;;;9.67;;
15486;SDS011;7845;53.698;10.078;2023-11-19T05:47:09;11.67;;;11.67;;
15486;SDS011;7845;53.698;10.078;2023-11-19T05:49:34;12.33;;;11.67;;
15486;SDS011;7845;53.698;10.078;2023-11-19T05:51:59;12.00;;;12.00;;
15486;SDS011;7845;53.698;10.078;2023-11-19T05:54:26;17.00;;;16.50;;
15486;SDS011;7845;53.698;10.078;2023-11-19T05:56:52;11.67;;;11.67;;
15486;SDS011;7845;53.698;10.078;2023-11-19T05:59:19;11.50;;;11.00;;
15486;SDS011;7845;53.698;10.078;2023-11-19T06:01:44;13.00;;;12.67;;
15486;SDS011;7845;53.698;10.078;2023-11-19T06:04:10;16.00;;;15.00;;
15486;SDS011;7845;53.698;10.078;2023-11-19T06:06:35;15.33;;;14.67;;
15486;SDS011;7845;53.698;10.078;2023-11-19T06:09:01;17.75;;;14.50;;
15486;SDS011;7845;53.698;10.078;2023-11-19T06:11:27;13.67;;;12.33;;
15486;SDS011;7845;53.698;10.078;2023-11-19T06:13:53;19.67;;;18.00;;
15486;SDS011;7845;53.698;10.078;2023-11-19T06:16:18;15.67;;;15.00;;
15486;SDS011;7845;53.698;10.078;2023-11-19T06:18:44;16.67;;;14.33;;
15486;SDS011;7845;53.698;10.078;2023-11-19T06:21:10;14.67;;;13.33;;
15486;SDS011;7845;53.698;10.078;2023-11-19T06:23:35;15.75;;;15.00;;
15486;SDS011;7845;53.698;10.078;2023-11-19T06:26:01;15.00;;;13.67;;
15486;SDS011;7845;53.698;10.078;2023-11-19T06:28:26;14.67;;;14.67;;
15486;SDS011;7845;53.698;10.078;2023-11-19T06:30:51;15.67;;;14.67;;
15486;SDS011;7845;53.698;10.078;2023-11-19T06:33:18;15.00;;;12.67;;
15486;SDS011;7845;53.698;10.078;2023-11-19T06:35:43;18.75;;;14.00;;
15486;SDS011;7845;53.698;10.078;2023-11-19T06:38:08;15.67;;;15.67;;
15486;SDS011;7845;53.698;10.078;2023-11-19T06:40:34;15.33;;;14.00;;
15486;SDS011;7845;53.698;10.078;2023-11-19T06:43:00;13.25;;;11.75;;
15486;SDS011;7845;53.698;10.078;2023-11-19T06:45:27;17.75;;;17.00;;
15486;SDS011;7845;53.698;10.078;2023-11-19T06:47:53;14.33;;;13.67;;
15486;SDS011;7845;53.698;10.078;2023-11-19T06:50:18;12.33;;;11.00;;
15486;SDS011;7845;53.698;10.078;2023-11-19T06:52:44;17.33;;;15.00;;
15486;SDS011;7845;53.698;10.078;2023-11-19T06:55:10;12.67;;;11.00;;
15486;SDS011;7845;53.698;10.078;2023-11-19T06:57:35;14.33;;;14.33;;
15486;SDS011;7845;53.698;10.078;2023-11-19T07:00:00;13.00;;;12.00;;
15486;SDS011;7845;53.698;10.078;2023-11-19T07:02:26;14.33;;;13.00;;
15486;SDS011;7845;53.698;10.078;2023-11-19T07:04:51;16.33;;;15.67;;
15486;SDS011;7845;53.698;10.078;2023-11-19T07:07:17;14.00;;;13.00;;
15486;SDS011;7845;53.698;10.078;2023-11-19T07:09:42;17.00;;;13.00;;
15486;SDS011;7845;53.698;10.078;2023-11-19T07:12:07;9.00;;;8.33;;
15486;SDS011;7845;53.698;10.078;2023-11-19T07:14:33;12.67;;;9.33;;
15486;SDS011;7845;53.698;10.078;2023-11-19T07:16:59;8.33;;;5.33;;
15486;SDS011;7845;53.698;10.078;2023-11-19T07:19:25;7.50;;;6.75;;
15486;SDS011;7845;53.698;10.078;2023-11-19T07:21:50;7.67;;;7.00;;
15486;SDS011;7845;53.698;10.078;2023-11-19T07:24:15;8.00;;;6.67;;
15486;SDS011;7845;53.698;10.078;2023-11-19T07:26:45;9.33;;;6.67;;
15486;SDS011;7845;53.698;10.078;2023-11-19T07:29:14;6.50;;;6.00;;
15486;SDS011;7845;53.698;10.078;2023-11-19T07:31:41;6.00;;;6.00;;
15486;SDS011;7845;53.698;10.078;2023-11-19T07:34:09;6.50;;;6.00;;
15486;SDS011;7845;53.698;10.078;2023-11-19T07:36:35;7.75;;;7.50;;
15486;SDS011;7845;53.698;10.078;2023-11-19T07:39:01;5.33;;;3.33;;
15486;SDS011;7845;53.698;10.078;2023-11-19T07:41:26;9.00;;;5.00;;
15486;SDS011;7845;53.698;10.078;2023-11-19T07:43:51;5.33;;;5.00;;
15486;SDS011;7845;53.698;10.078;2023-11-19T07:46:17;4.00;;;3.50;;
15486;SDS011;7845;53.698;10.078;2023-11-19T07:48:45;5.25;;;5.00;;
15486;SDS011;7845;53.698;10.078;2023-11-19T07:51:12;4.75;;;4.75;;
15486;SDS011;7845;53.698;10.078;2023-11-19T07:53:37;6.33;;;5.00;;
15486;SDS011;7845;53.698;10.078;2023-11-19T07:56:05;4.00;;;3.00;;
15486;SDS011;7845;53.698;10.078;2023-11-19T07:58:31;3.33;;;2.00;;
15486;SDS011;7845;53.698;10.078;2023-11-19T08:00:58;2.00;;;1.75;;
15486;SDS011;7845;53.698;10.078;2023-11-19T08:03:23;5.00;;;3.67;;
15486;SDS011;7845;53.698;10.078;2023-11-19T08:05:49;3.00;;;2.00;;
15486;SDS011;7845;53.698;10.078;2023-11-19T08:08:14;5.67;;;5.00;;
15486;SDS011;7845;53.698;10.078;2023-11-19T08:10:40;4.67;;;3.33;;
15486;SDS011;7845;53.698;10.078;2023-11-19T08:13:05;3.00;;;3.00;;
15486;SDS011;7845;53.698;10.078;2023-11-19T08:15:31;5.33;;;5.00;;
15486;SDS011;7845;53.698;10.078;2023-11-19T08:17:56;3.67;;;3.33;;
15486;SDS011;7845;53.698;10.078;2023-11-19T08:20:22;2.33;;;2.00;;
15486;SDS011;7845;53.698;10.078;2023-11-19T08:22:47;2.67;;;2.67;;
15486;SDS011;7845;53.698;10.078;2023-11-19T08:25:13;3.00;;;2.00;;
15486;SDS011;7845;53.698;10.078;2023-11-19T08:27:39;3.00;;;3.00;;
15486;SDS011;7845;53.698;10.078;2023-11-19T08:30:04;6.00;;;5.00;;
15486;SDS011;7845;53.698;10.078;2023-11-19T08:32:31;6.25;;;2.25;;
15486;SDS011;7845;53.698;10.078;2023-11-19T08:34:56;6.33;;;5.33;;
15486;SDS011;7845;53.698;10.078;2023-11-19T08:37:22;3.00;;;3.00;;
15486;SDS011;7845;53.698;10.078;2023-11-19T08:39:47;9.33;;;5.67;;
15486;SDS011;7845;53.698;10.078;2023-11-19T08:42:13;8.50;;;6.00;;
15486;SDS011;7845;53.698;10.078;2023-11-19T08:44:39;8.33;;;5.33;;
15486;SDS011;7845;53.698;10.078;2023-11-19T08:47:05;3.50;;;3.50;;
15486;SDS011;7845;53.698;10.078;2023-11-19T08:49:30;2.00;;;2.00;;
15486;SDS011;7845;53.698;10.078;2023-11-19T08:51:56;5.00;;;3.67;;
15486;SDS011;7845;53.698;10.078;2023-11-19T08:54:21;3.67;;;3.00;;
15486;SDS011;7845;53.698;10.078;2023-11-19T08:56:47;3.00;;;3.00;;
15486;SDS011;7845;53.698;10.078;2023-11-19T08:59:13;7.00;;;5.00;;
15486;SDS011;7845;53.698;10.078;2023-11-19T09:01:40;6.25;;;5.00;;
15486;SDS011;7845;53.698;10.078;2023-11-19T09:04:05;5.50;;;5.50;;
15486;SDS011;7845;53.698;10.078;2023-11-19T09:06:31;5.00;;;5.00;;
15486;SDS011;7845;53.698;10.078;2023-11-19T09:08:56;2.33;;;2.00;;
15486;SDS011;7845;53.698;10.078;2023-11-19T09:11:25;3.00;;;2.00;;
15486;SDS011;7845;53.698;10.078;2023-11-19T09:13:51;5.67;;;3.00;;
15486;SDS011;7845;53.698;10.078;2023-11-19T09:16:16;3.00;;;2.00;;
15486;SDS011;7845;53.698;10.078;2023-11-19T09:18:41;7.67;;;5.67;;
15486;SDS011;7845;53.698;10.078;2023-11-19T09:21:07;3.67;;;3.67;;
15486;SDS011;7845;53.698;10.078;2023-11-19T09:23:32;5.33;;;4.33;;
15486;SDS011;7845;53.698;10.078;2023-11-19T09:26:03;4.00;;;2.00;;
15486;SDS011;7845;53.698;10.078;2023-11-19T09:28:30;5.00;;;2.75;;
15486;SDS011;7845;53.698;10.078;2023-11-19T09:30:55;3.00;;;2.67;;
15486;SDS011;7845;53.698;10.078;2023-11-19T09:33:21;4.33;;;3.00;;
15486;SDS011;7845;53.698;10.078;2023-11-19T09:35:46;5.00;;;5.00;;
15486;SDS011;7845;53.698;10.078;2023-11-19T09:38:11;3.00;;;3.00;;
15486;SDS011;7845;53.698;10.078;2023-11-19T09:40:37;5.00;;;5.00;;
15486;SDS011;7845;53.698;10.078;2023-11-19T09:43:03;5.00;;;4.50;;
15486;SDS011;7845;53.698;10.078;2023-11-19T09:45:29;8.25;;;5.50;;
15486;SDS011;7845;53.698;10.078;2023-11-19T09:47:57;5.75;;;4.50;;
15486;SDS011;7845;53.698;10.078;2023-11-19T09:50:26;6.50;;;5.75;;
15486;SDS011;7845;53.698;10.078;2023-11-19T09:52:51;2.00;;;2.00;;
15486;SDS011;7845;53.698;10.078;2023-11-19T09:55:16;5.00;;;3.67;;
15486;SDS011;7845;53.698;10.078;2023-11-19T09:57:42;8.33;;;5.00;;
15486;SDS011;7845;53.698;10.078;2023-11-19T10:00:09;2.25;;;2.00;;
15486;SDS011;7845;53.698;10.078;2023-11-19T10:02:36;5.75;;;3.00;;
15486;SDS011;7845;53.698;10.078;2023-11-19T10:05:04;6.00;;;2.00;;
15486;SDS011;7845;53.698;10.078;2023-11-19T10:07:31;6.00;;;3.00;;
15486;SDS011;7845;53.698;10.078;2023-11-19T10:09:58;3.25;;;1.75;;
15486;SDS011;7845;53.698;10.078;2023-11-19T10:12:29;7.50;;;6.50;;
15486;SDS011;7845;53.698;10.078;2023-11-19T10:14:55;7.67;;;6.33;;
15486;SDS011;7845;53.698;10.078;2023-11-19T10:17:27;3.00;;;3.00;;
15486;SDS011;7845;53.698;10.078;2023-11-19T10:19:54;2.50;;;2.50;;
15486;SDS011;7845;53.698;10.078;2023-11-19T10:22:19;3.00;;;2.00;;
15486;SDS011;7845;53.698;10.078;2023-11-19T10:24:45;6.67;;;4.33;;
15486;SDS011;7845;53.698;10.078;2023-11-19T10:27:10;7.33;;;5.00;;
15486;SDS011;7845;53.698;10.078;2023-11-19T10:29:36;2.67;;;2.33;;
15486;SDS011;7845;53.698;10.078;2023-11-19T10:32:02;2.25;;;2.00;;
15486;SDS011;7845;53.698;10.078;2023-11-19T10:34:28;8.00;;;3.00;;
15486;SDS011;7845;53.698;10.078;2023-11-19T10:36:54;3.25;;;2.50;;
15486;SDS011;7845;53.698;10.078;2023-11-19T10:39:20;1.33;;;1.00;;
15486;SDS011;7845;53.698;10.078;2023-11-19T10:41:46;2.00;;;0.00;;
15486;SDS011;7845;53.698;10.078;2023-11-19T10:44:11;5.67;;;5.00;;
15486;SDS011;7845;53.698;10.078;2023-11-19T10:46:37;6.00;;;3.00;;
15486;SDS011;7845;53.698;10.078;2023-11-19T10:49:04;2.75;;;2.00;;
15486;SDS011;7845;53.698;10.078;2023-11-19T10:51:31;3.00;;;2.00;;
15486;SDS011;7845;53.698;10.078;2023-11-19T10:53:58;2.00;;;2.00;;
15486;SDS011;7845;53.698;10.078;2023-11-19T10:56:30;5.25;;;3.50;;
15486;SDS011;7845;53.698;10.078;2023-11-19T10:58:56;7.50;;;4.25;;
15486;SDS011;7845;53.698;10.078;2023-11-19T11:01:25;6.00;;;5.00;;
15486;SDS011;7845;53.698;10.078;2023-11-19T11:03:55;3.00;;;2.00;;
15486;SDS011;7845;53.698;10.078;2023-11-19T11:06:28;4.25;;;2.50;;
15486;SDS011;7845;53.698;10.078;2023-11-19T11:08:56;8.75;;;5.75;;
15486;SDS011;7845;53.698;10.078;2023-11-19T11:11:23;3.00;;;2.00;;
15486;SDS011;7845;53.698;10.078;2023-11-19T11:13:49;4.67;;;2.33;;
15486;SDS011;7845;53.698;10.078;2023-11-19T11:16:15;1.00;;;1.00;;
15486;SDS011;7845;53.698;10.078;2023-11-19T11:18:43;3.00;;;3.00;;
15486;SDS011;7845;53.698;10.078;2023-11-19T11:21:12;2.00;;;2.00;;
15486;SDS011;7845;53.698;10.078;2023-11-19T11:29:31;4.00;;;3.25;;
15486;SDS011;7845;53.698;10.078;2023-11-19T11:32:30;6.00;;;5.50;;
15486;SDS011;7845;53.698;10.078;2023-11-19T11:38:08;7.75;;;3.75;;
15486;SDS011;7845;53.698;10.078;2023-11-19T11:40:34;2.50;;;1.75;;
15486;SDS011;7845;53.698;10.078;2023-11-19T11:42:59;6.00;;;4.00;;
15486;SDS011;7845;53.698;10.078;2023-11-19T11:45:40;8.00;;;5.33;;
15486;SDS011;7845;53.698;10.078;2023-11-19T11:50:50;6.00;;;5.00;;
15486;SDS011;7845;53.698;10.078;2023-11-19T11:53:22;4.25;;;3.25;;
15486;SDS011;7845;53.698;10.078;2023-11-19T11:58:17;7.00;;;5.00;;
15486;SDS011;7845;53.698;10.078;2023-11-19T12:00:43;6.50;;;5.50;;
15486;SDS011;7845;53.698;10.078;2023-11-19T12:03:11;6.33;;;6.00;;
15486;SDS011;7845;53.698;10.078;2023-11-19T12:05:43;3.00;;;2.25;;
15486;SDS011;7845;53.698;10.078;2023-11-19T12:08:13;7.25;;;5.25;;
15486;SDS011;7845;53.698;10.078;2023-11-19T12:10:47;9.00;;;6.00;;
15486;SDS011;7845;53.698;10.078;2023-11-19T12:13:14;2.00;;;1.50;;
15486;SDS011;7845;53.698;10.078;2023-11-19T12:16:06;6.50;;;6.00;;
15486;SDS011;7845;53.698;10.078;2023-11-19T12:18:29;4.50;;;3.50;;
15486;SDS011;7845;53.698;10.078;2023-11-19T12:20:58;7.00;;;4.75;;
15486;SDS011;7845;53.698;10.078;2023-11-19T12:23:31;5.50;;;3.00;;
15486;SDS011;7845;53.698;10.078;2023-11-19T12:25:57;5.25;;;4.25;;
15486;SDS011;7845;53.698;10.078;2023-11-19T12:28:23;7.25;;;5.75;;
15486;SDS011;7845;53.698;10.078;2023-11-19T12:30:51;6.00;;;4.75;;
15486;SDS011;7845;53.698;10.078;2023-11-19T12:33:17;3.00;;;2.00;;
15486;SDS011;7845;53.698;10.078;2023-11-19T12:35:43;3.00;;;3.00;;
15486;SDS011;7845;53.698;10.078;2023-11-19T12:38:19;5.25;;;3.75;;
15486;SDS011;7845;53.698;10.078;2023-11-19T12:41:04;2.75;;;2.75;;
15486;SDS011;7845;53.698;10.078;2023-11-19T12:43:29;5.00;;;4.50;;
15486;SDS011;7845;53.698;10.078;2023-11-19T12:45:55;3.00;;;3.00;;
15486;SDS011;7845;53.698;10.078;2023-11-19T12:48:20;7.00;;;3.67;;
15486;SDS011;7845;53.698;10.078;2023-11-19T12:50:52;3.33;;;3.00;;
15486;SDS011;7845;53.698;10.078;2023-11-19T12:53:20;4.75;;;3.25;;
15486;SDS011;7845;53.698;10.078;2023-11-19T12:55:46;7.00;;;4.50;;
15486;SDS011;7845;53.698;10.078;2023-11-19T12:58:28;2.33;;;2.33;;
15486;SDS011;7845;53.698;10.078;2023-11-19T13:01:01;3.00;;;2.50;;
15486;SDS011;7845;53.698;10.078;2023-11-19T13:03:29;9.25;;;7.00;;
15486;SDS011;7845;53.698;10.078;2023-11-19T13:06:01;3.75;;;2.25;;
15486;SDS011;7845;53.698;10.078;2023-11-19T13:08:28;3.25;;;2.25;;
15486;SDS011;7845;53.698;10.078;2023-11-19T13:10:54;3.00;;;3.00;;
15486;SDS011;7845;53.698;10.078;2023-11-19T13:13:19;2.00;;;1.67;;
15486;SDS011;7845;53.698;10.078;2023-11-19T13:15:45;3.33;;;3.00;;
15486;SDS011;7845;53.698;10.078;2023-11-19T13:18:10;2.00;;;2.00;;
15486;SDS011;7845;53.698;10.078;2023-11-19T13:20:37;7.50;;;5.00;;
15486;SDS011;7845;53.698;10.078;2023-11-19T13:23:05;3.67;;;3.00;;
15486;SDS011;7845;53.698;10.078;2023-11-19T13:25:35;6.00;;;3.50;;
15486;SDS011;7845;53.698;10.078;2023-11-19T13:28:00;2.67;;;1.67;;
15486;SDS011;7845;53.698;10.078;2023-11-19T13:30:26;5.00;;;3.00;;
15486;SDS011;7845;53.698;10.078;2023-11-19T13:32:52;4.00;;;3.00;;
15486;SDS011;7845;53.698;10.078;2023-11-19T13:35:20;6.75;;;3.50;;
15486;SDS011;7845;53.698;10.078;2023-11-19T13:37:45;6.00;;;3.67;;
15486;SDS011;7845;53.698;10.078;2023-11-19T13:40:11;6.67;;;5.00;;
15486;SDS011;7845;53.698;10.078;2023-11-19T13:42:42;7.33;;;6.00;;
15486;SDS011;7845;53.698;10.078;2023-11-19T13:45:08;5.00;;;3.50;;
15486;SDS011;7845;53.698;10.078;2023-11-19T13:47:38;3.25;;;2.25;;
15486;SDS011;7845;53.698;10.078;2023-11-19T13:50:06;6.00;;;3.25;;
15486;SDS011;7845;53.698;10.078;2023-11-19T13:52:36;3.25;;;3.00;;
15486;SDS011;7845;53.698;10.078;2023-11-19T13:55:04;6.50;;;3.00;;
15486;SDS011;7845;53.698;10.078;2023-11-19T13:57:39;5.00;;;4.50;;
15486;SDS011;7845;53.698;10.078;2023-11-19T14:00:07;7.00;;;6.25;;
15486;SDS011;7845;53.698;10.078;2023-11-19T14:02:44;5.00;;;4.00;;
15486;SDS011;7845;53.698;10.078;2023-11-19T14:05:12;2.50;;;2.00;;
15486;SDS011;7845;53.698;10.078;2023-11-19T14:07:38;2.25;;;2.25;;
15486;SDS011;7845;53.698;10.078;2023-11-19T14:10:06;1.25;;;1.25;;
15486;SDS011;7845;53.698;10.078;2023-11-19T14:12:36;3.50;;;2.75;;
15486;SDS011;7845;53.698;10.078;2023-11-19T14:15:05;6.50;;;5.00;;
15486;SDS011;7845;53.698;10.078;2023-11-19T14:17:31;9.50;;;5.00;;
15486;SDS011;7845;53.698;10.078;2023-11-19T14:19:57;5.00;;;3.00;;
15486;SDS011;7845;53.698;10.078;2023-11-19T14:22:22;3.00;;;3.00;;
15486;SDS011;7845;53.698;10.078;2023-11-19T14:24:47;8.33;;;6.67;;
15486;SDS011;7845;53.698;10.078;2023-11-19T14:27:13;6.33;;;4.67;;
15486;SDS011;7845;53.698;10.078;2023-11-19T14:29:38;5.33;;;3.00;;
15486;SDS011;7845;53.698;10.078;2023-11-19T14:32:05;3.00;;;2.25;;
15486;SDS011;7845;53.698;10.078;2023-11-19T14:34:31;3.75;;;2.75;;
15486;SDS011;7845;53.698;10.078;2023-11-19T14:36:57;3.00;;;2.00;;
15486;SDS011;7845;53.698;10.078;2023-11-19T14:39:23;2.75;;;2.25;;
15486;SDS011;7845;53.698;10.078;2023-11-19T14:41:48;2.67;;;2.00;;
15486;SDS011;7845;53.698;10.078;2023-11-19T14:44:14;3.00;;;2.00;;
15486;SDS011;7845;53.698;10.078;2023-11-19T14:46:40;6.00;;;3.00;;
15486;SDS011;7845;53.698;10.078;2023-11-19T14:49:05;3.00;;;2.67;;
15486;SDS011;7845;53.698;10.078;2023-11-19T14:51:32;2.75;;;2.00;;
15486;SDS011;7845;53.698;10.078;2023-11-19T14:53:57;3.00;;;1.00;;
15486;SDS011;7845;53.698;10.078;2023-11-19T14:56:22;1.00;;;1.00;;